createdAt,value
2023-02-22T00:01:03.578Z,3.78
2023-02-22T00:03:35.456Z,3.85
2023-02-22T00:06:05.573Z,4.70
2023-02-22T00:08:34.796Z,3.78
2023-02-22T00:11:08.998Z,3.13
2023-02-22T00:13:37.570Z,2.97
2023-02-22T00:16:05.326Z,3.50
2023-02-22T00:18:32.840Z,2.95
2023-02-22T00:21:00.818Z,3.53
2023-02-22T00:23:32.492Z,3.13
2023-02-22T00:26:00.586Z,3.75
2023-02-22T00:28:27.651Z,3.42
2023-02-22T00:30:55.395Z,3.53
2023-02-22T00:33:25.403Z,3.53
2023-02-22T00:35:52.569Z,3.78
2023-02-22T00:38:19.961Z,3.70
2023-02-22T00:40:47.268Z,4.05
2023-02-22T00:43:14.786Z,4.35
2023-02-22T00:45:41.974Z,3.60
2023-02-22T00:48:10.150Z,4.00
2023-02-22T00:50:39.188Z,3.63
2023-02-22T00:53:07.516Z,3.42
2023-02-22T00:55:37.003Z,3.15
2023-02-22T00:58:05.447Z,3.88
2023-02-22T01:00:39.219Z,3.55
2023-02-22T01:03:07.521Z,3.00
2023-02-22T01:05:34.710Z,2.65
2023-02-22T01:08:02.991Z,2.95
2023-02-22T01:10:31.689Z,3.53
2023-02-22T01:13:00.286Z,3.60
2023-02-22T01:15:31.349Z,4.63
2023-02-22T01:17:59.739Z,3.30
2023-02-22T01:20:27.473Z,2.75
2023-02-22T01:22:56.422Z,3.55
2023-02-22T01:25:26.155Z,3.35
2023-02-22T01:27:53.928Z,2.83
2023-02-22T01:30:25.895Z,3.30
2023-02-22T01:32:56.265Z,3.53
2023-02-22T01:35:26.243Z,3.75
2023-02-22T01:37:53.196Z,2.83
2023-02-22T01:40:25.869Z,2.85
2023-02-22T01:42:54.616Z,3.58
2023-02-22T01:45:31.930Z,2.78
2023-02-22T01:48:09.362Z,3.38
2023-02-22T01:50:41.184Z,3.85
2023-02-22T01:53:10.521Z,3.15
2023-02-22T01:55:37.732Z,3.38
2023-02-22T01:58:06.048Z,3.08
2023-02-22T02:00:41.175Z,4.30
2023-02-22T02:03:14.341Z,3.28
2023-02-22T02:05:42.487Z,3.40
2023-02-22T02:08:22.291Z,3.47
2023-02-22T02:10:50.308Z,3.17
2023-02-22T02:13:17.614Z,3.22
2023-02-22T02:15:45.288Z,3.35
2023-02-22T02:18:13.899Z,3.33
2023-02-22T02:20:53.790Z,2.83
2023-02-22T02:23:41.807Z,4.35
2023-02-22T02:26:14.730Z,3.10
2023-02-22T02:29:05.745Z,2.72
2023-02-22T02:32:10.509Z,3.03
2023-02-22T02:34:46.420Z,3.05
2023-02-22T02:37:39.402Z,3.33
2023-02-22T02:40:24.604Z,3.63
2023-02-22T02:42:56.271Z,3.58
2023-02-22T02:45:51.051Z,3.28
2023-02-22T02:48:21.414Z,3.13
2023-02-22T02:50:49.296Z,3.28
2023-02-22T02:53:21.567Z,2.80
2023-02-22T02:55:48.976Z,3.65
2023-02-22T02:58:23.862Z,3.20
2023-02-22T03:00:55.919Z,3.38
2023-02-22T03:03:37.919Z,3.17
2023-02-22T03:06:14.128Z,3.25
2023-02-22T03:08:51.010Z,3.08
2023-02-22T03:11:23.750Z,4.40
2023-02-22T03:14:19.184Z,4.20
2023-02-22T03:16:50.603Z,3.45
2023-02-22T03:19:31.359Z,3.65
2023-02-22T03:22:02.161Z,3.30
2023-02-22T03:25:15.708Z,3.28
2023-02-22T03:27:51.686Z,4.40
2023-02-22T03:30:24.644Z,3.95
2023-02-22T03:32:58.011Z,3.13
2023-02-22T03:35:29.130Z,3.25
2023-02-22T03:37:58.157Z,2.90
2023-02-22T03:40:29.163Z,3.67
2023-02-22T03:43:11.007Z,3.63
2023-02-22T03:45:40.054Z,3.25
2023-02-22T03:48:25.534Z,3.00
2023-02-22T03:50:52.631Z,3.45
2023-02-22T03:53:20.781Z,4.32
2023-02-22T03:55:51.915Z,3.47
2023-02-22T03:58:22.212Z,4.07
2023-02-22T04:00:53.426Z,3.78
2023-02-22T04:03:28.490Z,4.30
2023-02-22T04:06:04.170Z,3.17
2023-02-22T04:08:33.841Z,3.20
2023-02-22T04:11:02.021Z,3.60
2023-02-22T04:13:28.973Z,2.78
2023-02-22T04:15:59.125Z,4.20
2023-02-22T04:18:25.863Z,3.00
2023-02-22T04:20:55.826Z,3.35
2023-02-22T04:23:22.994Z,2.90
2023-02-22T04:25:51.168Z,3.40
2023-02-22T04:28:19.173Z,5.30
2023-02-22T04:30:46.865Z,4.30
2023-02-22T04:33:14.390Z,3.80
2023-02-22T04:35:41.904Z,3.72
2023-02-22T04:38:10.298Z,3.25
2023-02-22T04:40:37.036Z,3.05
2023-02-22T04:43:04.495Z,3.80
2023-02-22T04:45:31.680Z,2.67
2023-02-22T04:47:58.681Z,4.28
2023-02-22T04:50:25.490Z,3.17
2023-02-22T04:52:52.199Z,3.00
2023-02-22T04:55:19.481Z,3.88
2023-02-22T04:57:46.514Z,4.15
2023-02-22T05:00:18.576Z,3.80
2023-02-22T05:02:46.232Z,4.07
2023-02-22T05:05:15.788Z,3.03
2023-02-22T05:07:42.987Z,4.70
2023-02-22T05:10:11.054Z,4.78
2023-02-22T05:12:38.098Z,3.95
2023-02-22T05:15:09.450Z,3.65
2023-02-22T05:17:39.954Z,3.30
2023-02-22T05:20:08.883Z,3.70
2023-02-22T05:22:38.960Z,3.35
2023-02-22T05:25:09.003Z,4.25
2023-02-22T05:27:41.245Z,3.70
2023-02-22T05:30:11.920Z,3.75
2023-02-22T05:32:39.340Z,3.85
2023-02-22T05:35:06.821Z,4.00
2023-02-22T05:37:33.939Z,4.07
2023-02-22T05:40:01.182Z,3.90
2023-02-22T05:42:28.356Z,4.40
2023-02-22T05:44:55.691Z,3.28
2023-02-22T05:47:22.666Z,3.97
2023-02-22T05:49:49.680Z,3.50
2023-02-22T05:52:17.199Z,3.88
2023-02-22T05:54:44.149Z,3.58
2023-02-22T05:57:14.647Z,4.25
2023-02-22T05:59:41.833Z,4.30
2023-02-22T06:02:09.789Z,3.45
2023-02-22T06:04:37.190Z,4.30
2023-02-22T06:07:10.316Z,3.88
2023-02-22T06:09:37.357Z,4.45
2023-02-22T06:12:04.929Z,4.20
2023-02-22T06:14:31.928Z,4.65
2023-02-22T06:17:01.826Z,3.63
2023-02-22T06:19:28.848Z,3.83
2023-02-22T06:22:00.405Z,4.47
2023-02-22T06:24:27.826Z,3.67
2023-02-22T06:27:00.514Z,3.30
2023-02-22T06:29:28.388Z,3.65
2023-02-22T06:31:56.297Z,3.35
2023-02-22T06:34:23.313Z,3.63
2023-02-22T06:36:50.798Z,3.75
2023-02-22T06:39:19.239Z,5.35
2023-02-22T06:41:47.758Z,4.20
2023-02-22T06:44:16.772Z,4.07
2023-02-22T06:46:52.467Z,4.95
2023-02-22T06:49:20.519Z,4.18
2023-02-22T06:51:47.938Z,3.20
2023-02-22T06:54:15.360Z,3.90
2023-02-22T06:56:43.047Z,3.92
2023-02-22T06:59:10.607Z,3.55
2023-02-22T07:01:38.016Z,3.38
2023-02-22T07:04:06.718Z,3.90
2023-02-22T07:06:33.934Z,4.10
2023-02-22T07:09:03.933Z,3.42
2023-02-22T07:11:33.758Z,4.00
2023-02-22T07:14:00.538Z,4.53
2023-02-22T07:16:27.615Z,4.25
2023-02-22T07:18:57.228Z,3.67
2023-02-22T07:21:25.306Z,3.70
2023-02-22T07:23:54.348Z,3.90
2023-02-22T07:26:22.672Z,4.47
2023-02-22T07:28:50.596Z,4.20
2023-02-22T07:31:18.870Z,4.40
2023-02-22T07:33:50.809Z,4.40
2023-02-22T07:36:20.056Z,4.13
2023-02-22T07:38:46.981Z,3.55
2023-02-22T07:41:14.092Z,3.90
2023-02-22T07:43:41.203Z,5.50
2023-02-22T07:46:10.252Z,4.03
2023-02-22T07:48:38.876Z,3.70
2023-02-22T07:51:06.330Z,4.53
2023-02-22T07:53:37.197Z,3.80
2023-02-22T07:56:06.643Z,4.35
2023-02-22T07:58:33.762Z,3.63
2023-02-22T08:01:02.765Z,3.53
2023-02-22T08:03:38.645Z,4.47
2023-02-22T08:06:07.703Z,4.00
2023-02-22T08:08:34.950Z,4.55
2023-02-22T08:11:03.051Z,3.53
2023-02-22T08:13:32.379Z,4.40
2023-02-22T08:16:00.198Z,4.68
2023-02-22T08:18:27.633Z,3.47
2023-02-22T08:20:54.875Z,4.53
2023-02-22T08:23:26.830Z,4.82
2023-02-22T08:25:54.383Z,5.03
2023-02-22T08:28:23.785Z,4.38
2023-02-22T08:30:51.561Z,3.38
2023-02-22T08:33:20.241Z,4.20
2023-02-22T08:35:52.096Z,4.40
2023-02-22T08:38:28.853Z,4.13
2023-02-22T08:40:57.230Z,4.50
2023-02-22T08:43:24.730Z,4.30
2023-02-22T08:45:56.171Z,4.00
2023-02-22T08:48:24.502Z,5.00
2023-02-22T08:50:51.676Z,4.15
2023-02-22T08:53:19.285Z,4.93
2023-02-22T08:55:50.127Z,5.45
2023-02-22T08:58:17.273Z,5.90
2023-02-22T09:00:45.020Z,5.63
2023-02-22T09:03:14.884Z,6.53
2023-02-22T09:05:45.421Z,5.22
2023-02-22T09:08:14.885Z,5.28
2023-02-22T09:10:45.685Z,5.25
2023-02-22T09:13:12.852Z,5.40
2023-02-22T09:15:40.454Z,5.05
2023-02-22T09:18:09.469Z,5.70
2023-02-22T09:20:36.786Z,5.50
2023-02-22T09:23:05.511Z,5.60
2023-02-22T09:25:34.448Z,4.50
2023-02-22T09:28:02.015Z,5.07
2023-02-22T09:30:35.974Z,4.50
2023-02-22T09:33:06.071Z,5.10
2023-02-22T09:35:36.700Z,4.32
2023-02-22T09:38:06.508Z,4.97
2023-02-22T09:40:34.348Z,4.38
2023-02-22T09:43:01.162Z,3.65
2023-02-22T09:45:37.525Z,5.32
2023-02-22T09:48:19.434Z,4.57
2023-02-22T09:50:50.279Z,4.95
2023-02-22T09:53:43.737Z,3.60
2023-02-22T09:56:12.918Z,3.97
2023-02-22T09:58:46.085Z,4.38
2023-02-22T10:01:27.218Z,4.30
2023-02-22T10:04:20.492Z,4.40
2023-02-22T10:06:56.197Z,3.85
2023-02-22T10:09:27.632Z,4.40
2023-02-22T10:12:13.129Z,4.85
2023-02-22T10:15:05.427Z,4.03
2023-02-22T10:17:37.606Z,3.97
2023-02-22T10:20:07.022Z,3.78
2023-02-22T10:22:57.327Z,3.95
2023-02-22T10:25:27.364Z,3.13
2023-02-22T10:28:14.056Z,4.45
2023-02-22T10:30:44.570Z,4.53
2023-02-22T10:33:38.876Z,4.28
2023-02-22T10:36:09.329Z,3.75
2023-02-22T10:38:36.726Z,3.53
2023-02-22T10:41:17.586Z,4.00
2023-02-22T10:43:45.408Z,3.95
2023-02-22T10:46:16.861Z,3.42
2023-02-22T10:48:52.787Z,3.35
2023-02-22T10:51:19.887Z,3.10
2023-02-22T10:53:56.720Z,3.80
2023-02-22T10:56:27.950Z,3.53
2023-02-22T10:59:00.226Z,4.55
2023-02-22T11:01:41.231Z,4.00
2023-02-22T11:04:24.935Z,3.30
2023-02-22T11:07:34.535Z,3.60
2023-02-22T11:10:06.612Z,3.58
2023-02-22T11:12:38.196Z,3.17
2023-02-22T11:15:17.007Z,3.67
2023-02-22T11:17:45.892Z,3.90
2023-02-22T11:20:25.667Z,3.28
2023-02-22T11:22:58.249Z,3.33
2023-02-22T11:25:28.266Z,3.75
2023-02-22T11:27:55.542Z,3.72
2023-02-22T11:30:25.039Z,4.20
2023-02-22T11:33:14.088Z,3.53
2023-02-22T11:35:53.721Z,3.63
2023-02-22T11:38:41.084Z,3.78
2023-02-22T11:41:21.752Z,3.28
2023-02-22T11:43:50.829Z,3.40
2023-02-22T11:46:25.751Z,3.10
2023-02-22T11:49:08.545Z,3.20
2023-02-22T11:51:59.430Z,3.35
2023-02-22T11:54:53.622Z,2.85
2023-02-22T11:57:22.408Z,2.85
2023-02-22T11:59:58.827Z,4.28
2023-02-22T12:02:31.385Z,3.25
2023-02-22T12:05:05.621Z,4.38
2023-02-22T12:07:45.549Z,3.47
2023-02-22T12:10:18.800Z,3.65
2023-02-22T12:13:11.357Z,2.95
2023-02-22T12:16:18.743Z,2.92
2023-02-22T12:18:55.441Z,3.90
2023-02-22T12:21:24.017Z,2.95
2023-02-22T12:23:53.582Z,3.33
2023-02-22T12:26:23.366Z,3.72
2023-02-22T12:29:22.421Z,2.90
2023-02-22T12:32:05.435Z,3.00
2023-02-22T12:34:38.457Z,3.33
2023-02-22T12:37:10.282Z,3.75
2023-02-22T12:40:29.893Z,2.30
2023-02-22T12:42:56.876Z,2.60
2023-02-22T12:45:29.291Z,2.65
2023-02-22T12:48:14.897Z,3.08
2023-02-22T12:50:45.871Z,3.10
2023-02-22T12:53:20.469Z,3.13
2023-02-22T12:56:12.069Z,3.17
2023-02-22T12:59:08.657Z,2.25
2023-02-22T13:01:41.263Z,2.90
2023-02-22T13:04:20.215Z,3.05
2023-02-22T13:06:59.223Z,3.22
2023-02-22T13:09:57.084Z,2.67
2023-02-22T13:12:52.542Z,4.22
2023-02-22T13:15:30.998Z,2.92
2023-02-22T13:18:15.045Z,2.50
2023-02-22T13:20:52.417Z,3.20
2023-02-22T13:23:34.820Z,3.13
2023-02-22T13:26:22.530Z,2.58
2023-02-22T13:28:57.621Z,2.45
2023-02-22T13:31:30.475Z,2.58
2023-02-22T13:34:17.945Z,2.05
2023-02-22T13:37:13.924Z,3.30
2023-02-22T13:40:15.315Z,3.38
2023-02-22T13:43:10.664Z,3.00
2023-02-22T13:46:02.107Z,2.75
2023-02-22T13:48:51.201Z,2.88
2023-02-22T13:51:43.406Z,2.28
2023-02-22T13:54:48.135Z,2.45
2023-02-22T13:57:19.058Z,2.03
2023-02-22T13:59:47.317Z,2.92
2023-02-22T14:02:36.905Z,2.42
2023-02-22T14:05:35.959Z,2.60
2023-02-22T14:08:03.041Z,2.75
2023-02-22T14:10:38.700Z,2.53
2023-02-22T14:13:07.233Z,2.47
2023-02-22T14:15:34.845Z,2.95
2023-02-22T14:18:08.406Z,3.28
2023-02-22T14:20:40.368Z,2.75
2023-02-22T14:23:36.121Z,2.70
2023-02-22T14:26:29.062Z,2.72
2023-02-22T14:28:58.902Z,3.28
2023-02-22T14:31:37.308Z,2.42
2023-02-22T14:34:22.429Z,3.78
2023-02-22T14:36:58.872Z,3.00
2023-02-22T14:39:38.515Z,3.00
2023-02-22T14:42:19.743Z,4.00
2023-02-22T14:45:10.492Z,2.83
2023-02-22T14:48:04.220Z,2.83
2023-02-22T14:50:41.825Z,2.30
2023-02-22T14:53:44.253Z,2.47
2023-02-22T14:56:28.873Z,3.03
2023-02-22T14:59:22.318Z,2.47
2023-02-22T15:02:02.210Z,3.13
2023-02-22T15:04:36.197Z,2.78
2023-02-22T15:09:51.036Z,2.90
2023-02-22T15:12:30.084Z,2.70
2023-02-22T15:15:32.391Z,2.65
2023-02-22T15:17:59.339Z,2.85
2023-02-22T15:20:26.442Z,2.63
2023-02-22T15:22:59.249Z,2.75
2023-02-22T15:25:41.615Z,2.88
2023-02-22T15:28:13.208Z,2.85
2023-02-22T15:30:40.237Z,3.10
2023-02-22T15:33:18.337Z,2.88
2023-02-22T15:35:45.246Z,3.38
2023-02-22T15:38:11.903Z,2.70
2023-02-22T15:40:45.892Z,3.25
2023-02-22T15:43:28.938Z,2.85
2023-02-22T15:45:56.958Z,2.88
2023-02-22T15:48:26.543Z,2.88
2023-02-22T15:51:09.533Z,3.28
2023-02-22T15:53:43.746Z,3.00
2023-02-22T15:56:16.849Z,2.63
2023-02-22T15:58:46.595Z,2.92
2023-02-22T16:01:23.770Z,3.28
2023-02-22T16:03:52.142Z,2.90
2023-02-22T16:06:37.593Z,2.33
2023-02-22T16:09:17.226Z,2.92
2023-02-22T16:11:49.582Z,3.42
2023-02-22T16:14:34.669Z,3.08
2023-02-22T16:17:41.172Z,3.20
2023-02-22T16:20:12.376Z,3.42
2023-02-22T16:22:40.929Z,3.50
2023-02-22T16:25:19.667Z,2.88
2023-02-22T16:27:50.933Z,3.15
2023-02-22T16:30:24.807Z,3.13
2023-02-22T16:32:54.111Z,4.93
2023-02-22T16:35:30.298Z,2.67
2023-02-22T16:38:05.426Z,3.15
2023-02-22T16:40:37.186Z,3.30
2023-02-22T16:43:12.288Z,2.97
2023-02-22T16:45:41.934Z,4.20
2023-02-22T16:48:26.506Z,3.55
2023-02-22T16:50:54.891Z,3.53
2023-02-22T16:53:24.449Z,4.07
2023-02-22T16:55:58.072Z,3.90
2023-02-22T16:58:28.173Z,4.05
2023-02-22T17:00:57.581Z,3.90
2023-02-22T17:03:26.121Z,3.53
2023-02-22T17:05:53.668Z,3.03
2023-02-22T17:08:20.568Z,2.45
2023-02-22T17:10:51.789Z,2.63
2023-02-22T17:13:26.919Z,3.00
2023-02-22T17:15:57.092Z,3.50
2023-02-22T17:18:28.842Z,3.25
2023-02-22T17:20:56.185Z,3.50
2023-02-22T17:23:24.274Z,4.18
2023-02-22T17:25:58.838Z,2.90
2023-02-22T17:31:08.747Z,3.83
2023-02-22T17:33:36.942Z,4.43
2023-02-22T17:36:05.351Z,3.35
2023-02-22T17:38:32.526Z,3.55
2023-02-22T17:41:00.756Z,3.88
2023-02-22T17:43:28.688Z,3.85
2023-02-22T17:45:56.335Z,3.95
2023-02-22T17:48:24.321Z,3.88
2023-02-22T17:50:51.381Z,3.67
2023-02-22T17:53:21.869Z,3.70
2023-02-22T17:55:49.305Z,4.82
2023-02-22T17:58:16.546Z,3.13
2023-02-22T18:00:49.784Z,3.20
2023-02-22T18:03:26.106Z,4.88
2023-02-22T18:05:58.393Z,3.33
2023-02-22T18:08:27.116Z,3.30
2023-02-22T18:10:57.087Z,3.67
2023-02-22T18:13:25.803Z,3.08
2023-02-22T18:15:53.045Z,3.78
2023-02-22T18:18:21.086Z,3.40
2023-02-22T18:20:52.346Z,2.92
2023-02-22T18:23:24.684Z,3.15
2023-02-22T18:26:09.312Z,3.42
2023-02-22T18:28:37.547Z,3.17
2023-02-22T18:31:15.122Z,3.03
2023-02-22T18:36:28.175Z,2.72
2023-02-22T18:38:56.978Z,3.25
2023-02-22T18:41:27.193Z,3.75
2023-02-22T18:43:55.727Z,3.00
2023-02-22T18:46:23.968Z,2.72
2023-02-22T18:48:53.627Z,3.60
2023-02-22T18:51:20.780Z,2.90
2023-02-22T18:53:50.482Z,3.35
2023-02-22T18:56:22.220Z,3.00
2023-02-22T18:59:03.192Z,3.28
2023-02-22T19:01:34.051Z,3.40
2023-02-22T19:04:01.231Z,2.72
2023-02-22T19:06:28.284Z,3.42
2023-02-22T19:08:55.324Z,4.07
2023-02-22T19:11:24.634Z,3.85
2023-02-22T19:13:57.482Z,4.38
2023-02-22T19:16:26.011Z,3.78
2023-02-22T19:18:57.950Z,3.20
2023-02-22T19:21:26.575Z,3.53
2023-02-22T19:26:35.024Z,3.90
2023-02-22T19:29:08.749Z,3.33
2023-02-22T19:31:38.859Z,3.47
2023-02-22T19:34:09.952Z,3.03
2023-02-22T19:36:48.719Z,3.88
2023-02-22T19:41:59.460Z,3.85
2023-02-22T19:44:28.076Z,3.45
2023-02-22T19:47:03.978Z,3.50
2023-02-22T19:49:31.248Z,3.72
2023-02-22T19:51:58.309Z,3.47
2023-02-22T19:54:28.297Z,3.35
2023-02-22T19:56:58.981Z,3.88
2023-02-22T19:59:28.796Z,3.22
2023-02-22T20:01:59.090Z,3.30
2023-02-22T20:04:29.709Z,3.45
2023-02-22T20:06:57.722Z,3.25
2023-02-22T20:09:39.964Z,4.03
2023-02-22T20:12:08.094Z,3.50
2023-02-22T20:14:35.454Z,3.72
2023-02-22T20:17:02.803Z,3.83
2023-02-22T20:19:30.196Z,3.55
2023-02-22T20:21:57.592Z,3.28
2023-02-22T20:24:25.233Z,2.85
2023-02-22T20:26:56.753Z,3.28
2023-02-22T20:29:35.234Z,2.90
2023-02-22T20:32:03.510Z,3.15
2023-02-22T20:34:33.802Z,3.33
2023-02-22T20:37:01.406Z,2.50
2023-02-22T20:39:28.275Z,2.85
2023-02-22T20:41:55.297Z,3.47
2023-02-22T20:44:24.414Z,2.83
2023-02-22T20:46:51.224Z,2.75
2023-02-22T20:49:22.359Z,3.17
2023-02-22T20:51:57.188Z,3.17
2023-02-22T20:54:24.351Z,3.40
2023-02-22T20:56:52.849Z,3.45
2023-02-22T20:59:30.793Z,3.30
2023-02-22T21:01:57.655Z,3.42
2023-02-22T21:04:24.649Z,2.97
2023-02-22T21:06:52.318Z,3.42
2023-02-22T21:09:20.445Z,4.00
2023-02-22T21:11:47.327Z,4.80
2023-02-22T21:14:18.911Z,4.47
2023-02-22T21:16:50.427Z,4.18
2023-02-22T21:19:34.226Z,3.83
2023-02-22T21:22:08.450Z,4.90
2023-02-22T21:24:41.447Z,4.22
2023-02-22T21:27:09.158Z,4.50
2023-02-22T21:29:36.397Z,4.28
2023-02-22T21:32:04.023Z,3.60
2023-02-22T21:34:31.019Z,3.67
2023-02-22T21:37:00.508Z,4.00
2023-02-22T21:39:30.053Z,4.20
2023-02-22T21:42:00.683Z,4.55
2023-02-22T21:44:27.997Z,4.70
2023-02-22T21:46:54.803Z,5.65
2023-02-22T21:49:25.402Z,4.30
2023-02-22T21:51:52.772Z,4.28
2023-02-22T21:54:19.987Z,4.82
2023-02-22T21:56:47.340Z,5.35
2023-02-22T21:59:20.352Z,5.13
2023-02-22T22:01:51.942Z,5.10
2023-02-22T22:04:24.355Z,5.28
2023-02-22T22:06:56.755Z,5.38
2023-02-22T22:09:24.822Z,5.10
2023-02-22T22:11:54.842Z,5.00
2023-02-22T22:14:24.463Z,5.18
2023-02-22T22:16:58.494Z,5.93
2023-02-22T22:19:29.980Z,6.13
2023-02-22T22:22:01.854Z,5.75
2023-02-22T22:24:32.277Z,5.95
2023-02-22T22:27:06.155Z,5.93
2023-02-22T22:29:34.942Z,5.15
2023-02-22T22:32:02.249Z,5.60
2023-02-22T22:34:37.603Z,4.85
2023-02-22T22:37:04.512Z,6.03
2023-02-22T22:39:31.586Z,6.45
2023-02-22T22:42:00.879Z,6.15
2023-02-22T22:44:35.352Z,5.95
2023-02-22T22:47:02.524Z,5.95
2023-02-22T22:49:31.655Z,5.45
2023-02-22T22:51:58.429Z,6.45
2023-02-22T22:54:25.177Z,6.88
2023-02-22T22:56:51.879Z,6.35
2023-02-22T22:59:18.732Z,6.07
2023-02-22T23:01:45.575Z,5.72
2023-02-22T23:04:16.655Z,7.70
2023-02-22T23:06:48.501Z,6.30
2023-02-22T23:09:25.436Z,6.55
2023-02-22T23:11:57.554Z,7.20
2023-02-22T23:14:31.472Z,7.13
2023-02-22T23:17:03.931Z,6.65
2023-02-22T23:19:34.987Z,7.05
2023-02-22T23:22:05.630Z,7.13
2023-02-22T23:24:36.274Z,7.22
2023-02-22T23:27:07.421Z,7.72
2023-02-22T23:29:39.003Z,6.90
2023-02-22T23:32:06.728Z,6.88
2023-02-22T23:34:36.072Z,7.82
2023-02-22T23:37:03.427Z,6.80
2023-02-22T23:39:30.553Z,7.47
2023-02-22T23:42:03.907Z,7.85
2023-02-22T23:44:34.316Z,7.43
2023-02-22T23:47:02.693Z,7.30
2023-02-22T23:49:38.341Z,7.57
2023-02-22T23:52:06.653Z,8.02
2023-02-22T23:54:36.761Z,7.43
2023-02-22T23:57:04.764Z,7.85
2023-02-22T23:59:32.985Z,7.53
